createdAt,value
2018-05-25T00:00:04.719Z,15.93
2018-05-25T00:02:31.016Z,15.93
2018-05-25T00:04:57.341Z,15.87
2018-05-25T00:07:23.730Z,15.87
2018-05-25T00:09:50.032Z,15.82
2018-05-25T00:12:16.399Z,15.89
2018-05-25T00:14:42.709Z,15.79
2018-05-25T00:17:09.027Z,15.69
2018-05-25T00:19:35.318Z,15.67
2018-05-25T00:22:01.639Z,15.60
2018-05-25T00:24:27.905Z,15.58
2018-05-25T00:26:54.206Z,15.55
2018-05-25T00:29:20.477Z,15.57
2018-05-25T00:31:46.789Z,15.59
2018-05-25T00:34:13.093Z,15.63
2018-05-25T00:36:39.349Z,15.56
2018-05-25T00:39:05.676Z,15.60
2018-05-25T00:41:31.951Z,15.59
2018-05-25T00:43:58.218Z,15.56
2018-05-25T00:46:24.494Z,15.48
2018-05-25T00:48:50.797Z,15.44
2018-05-25T00:51:17.817Z,15.43
2018-05-25T00:53:44.098Z,15.39
2018-05-25T00:56:10.376Z,15.38
2018-05-25T00:58:36.662Z,15.37
2018-05-25T01:01:03.686Z,15.35
2018-05-25T01:03:29.994Z,15.41
2018-05-25T01:05:56.234Z,15.42
2018-05-25T01:08:22.577Z,15.46
2018-05-25T01:10:48.901Z,15.34
2018-05-25T01:13:15.185Z,15.26
2018-05-25T01:15:42.212Z,15.27
2018-05-25T01:18:08.486Z,15.25
2018-05-25T01:20:34.791Z,15.19
2018-05-25T01:23:01.035Z,15.23
2018-05-25T01:25:28.112Z,15.19
2018-05-25T01:27:54.413Z,15.13
2018-05-25T01:30:20.729Z,15.16
2018-05-25T01:32:47.065Z,15.18
2018-05-25T01:35:13.388Z,15.19
2018-05-25T01:37:39.650Z,15.17
2018-05-25T01:40:05.928Z,15.10
2018-05-25T01:42:32.956Z,15.07
2018-05-25T01:45:00.038Z,15.11
2018-05-25T01:47:26.325Z,15.08
2018-05-25T01:49:52.661Z,15.06
2018-05-25T01:52:18.971Z,15.02
2018-05-25T01:54:45.277Z,14.99
2018-05-25T01:57:11.587Z,15.04
2018-05-25T01:59:37.878Z,15.10
2018-05-25T02:02:04.173Z,15.10
2018-05-25T02:04:31.186Z,14.96
2018-05-25T02:06:57.486Z,14.92
2018-05-25T02:09:23.800Z,14.97
2018-05-25T02:11:50.860Z,14.90
2018-05-25T02:14:17.154Z,14.85
2018-05-25T02:16:43.565Z,14.91
2018-05-25T02:19:09.825Z,14.89
2018-05-25T02:21:36.157Z,14.96
2018-05-25T02:24:02.470Z,14.91
2018-05-25T02:26:28.742Z,14.88
2018-05-25T02:28:55.079Z,14.80
2018-05-25T02:31:23.143Z,14.79
2018-05-25T02:33:49.437Z,14.77
2018-05-25T02:36:15.777Z,14.74
2018-05-25T02:38:42.114Z,14.74
2018-05-25T02:41:08.368Z,14.79
2018-05-25T02:43:34.644Z,14.86
2018-05-25T02:46:00.986Z,14.78
2018-05-25T02:48:27.282Z,14.68
2018-05-25T02:50:53.599Z,14.66
2018-05-25T02:53:20.051Z,14.64
2018-05-25T02:55:46.388Z,14.66
2018-05-25T02:58:12.619Z,14.68
2018-05-25T03:00:38.937Z,14.60
2018-05-25T03:03:05.975Z,14.58
2018-05-25T03:05:33.028Z,14.52
2018-05-25T03:08:00.049Z,14.52
2018-05-25T03:10:26.314Z,14.51
2018-05-25T03:12:53.329Z,14.53
2018-05-25T03:15:19.662Z,14.61
2018-05-25T03:17:45.929Z,14.54
2018-05-25T03:20:13.056Z,14.60
2018-05-25T03:22:39.582Z,14.56
2018-05-25T03:25:05.944Z,14.59
2018-05-25T03:27:32.271Z,14.68
2018-05-25T03:29:58.524Z,14.69
2018-05-25T03:32:24.833Z,14.73
2018-05-25T03:34:51.145Z,14.78
2018-05-25T03:37:17.453Z,14.84
2018-05-25T03:39:44.546Z,14.88
2018-05-25T03:42:10.834Z,14.91
2018-05-25T03:44:37.125Z,15.01
2018-05-25T03:47:03.493Z,15.03
2018-05-25T03:49:29.821Z,15.04
2018-05-25T03:51:56.131Z,15.10
2018-05-25T03:54:22.441Z,15.17
2018-05-25T03:56:49.461Z,15.18
2018-05-25T03:59:34.329Z,15.21
2018-05-25T04:02:00.617Z,15.23
2018-05-25T04:04:26.901Z,15.25
2018-05-25T04:06:54.091Z,15.33
2018-05-25T04:09:20.398Z,15.40
2018-05-25T04:11:47.446Z,15.40
2018-05-25T04:14:13.848Z,15.48
2018-05-25T04:16:40.843Z,15.51
2018-05-25T04:19:07.101Z,15.50
2018-05-25T04:21:34.181Z,15.56
2018-05-25T04:24:00.446Z,15.58
2018-05-25T04:26:26.814Z,15.56
2018-05-25T04:28:53.172Z,15.58
2018-05-25T04:31:20.238Z,15.63
2018-05-25T04:33:46.518Z,15.73
2018-05-25T04:36:12.797Z,15.80
2018-05-25T04:38:39.085Z,15.88
2018-05-25T04:41:05.375Z,15.93
2018-05-25T04:43:31.715Z,16.00
2018-05-25T04:45:58.777Z,15.99
2018-05-25T04:48:25.062Z,16.08
2018-05-25T04:50:51.391Z,16.14
2018-05-25T04:53:17.719Z,16.24
2018-05-25T04:55:44.053Z,16.21
2018-05-25T04:58:10.341Z,16.22
2018-05-25T05:00:36.639Z,16.29
2018-05-25T05:03:03.017Z,16.31
2018-05-25T05:05:30.090Z,16.32
2018-05-25T05:07:56.365Z,16.35
2018-05-25T05:10:22.725Z,16.41
2018-05-25T05:12:49.825Z,16.46
2018-05-25T05:15:16.157Z,16.46
2018-05-25T05:17:42.445Z,16.51
2018-05-25T05:20:08.789Z,16.62
2018-05-25T05:22:35.806Z,16.72
2018-05-25T05:25:02.148Z,16.76
2018-05-25T05:27:28.495Z,16.76
2018-05-25T05:29:54.845Z,16.86
2018-05-25T05:32:21.917Z,16.94
2018-05-25T05:34:49.015Z,17.03
2018-05-25T05:37:15.348Z,17.04
2018-05-25T05:39:41.622Z,17.09
2018-05-25T05:42:07.932Z,17.11
2018-05-25T05:44:34.249Z,17.18
2018-05-25T05:47:00.588Z,17.25
2018-05-25T05:49:26.905Z,17.35
2018-05-25T05:51:53.251Z,17.43
2018-05-25T05:54:19.553Z,17.50
2018-05-25T05:56:46.593Z,17.57
2018-05-25T05:59:12.949Z,17.64
2018-05-25T06:01:39.946Z,17.74
2018-05-25T06:04:06.286Z,17.81
2018-05-25T06:06:32.661Z,17.87
2018-05-25T06:08:58.909Z,17.95
2018-05-25T06:11:25.922Z,17.96
2018-05-25T06:13:52.351Z,18.00
2018-05-25T06:16:18.641Z,18.05
2018-05-25T06:18:45.847Z,18.11
2018-05-25T06:21:12.090Z,18.19
2018-05-25T06:23:38.377Z,18.22
2018-05-25T06:26:05.474Z,18.34
2018-05-25T06:28:31.836Z,18.43
2018-05-25T06:30:58.141Z,18.51
2018-05-25T06:33:24.446Z,18.60
2018-05-25T06:35:50.757Z,18.71
2018-05-25T06:38:17.833Z,18.77
2018-05-25T06:40:44.909Z,18.80
2018-05-25T06:43:11.196Z,18.83
2018-05-25T06:45:37.607Z,18.95
2018-05-25T06:48:03.884Z,19.03
2018-05-25T06:50:30.956Z,19.10
2018-05-25T06:52:57.237Z,19.22
2018-05-25T06:55:23.576Z,19.27
2018-05-25T06:57:49.875Z,19.35
2018-05-25T07:00:16.158Z,19.46
2018-05-25T07:02:42.477Z,19.38
2018-05-25T07:05:08.788Z,19.34
2018-05-25T07:07:35.074Z,19.57
2018-05-25T07:10:01.403Z,19.62
2018-05-25T07:12:27.711Z,19.72
2018-05-25T07:14:54.017Z,19.87
2018-05-25T07:17:20.308Z,19.99
2018-05-25T07:19:46.817Z,19.92
2018-05-25T07:22:13.108Z,19.97
2018-05-25T07:24:40.140Z,20.24
2018-05-25T07:27:06.502Z,20.31
2018-05-25T07:29:33.559Z,20.39
2018-05-25T07:32:00.598Z,20.34
2018-05-25T07:34:26.904Z,20.49
2018-05-25T07:36:53.193Z,20.54
2018-05-25T07:39:20.183Z,20.58
2018-05-25T07:41:46.548Z,20.65
2018-05-25T07:44:12.857Z,20.75
2018-05-25T07:46:39.170Z,20.78
2018-05-25T07:49:05.533Z,20.80
2018-05-25T07:51:31.809Z,20.80
2018-05-25T07:53:58.105Z,20.82
2018-05-25T07:56:24.476Z,20.89
2018-05-25T07:58:50.825Z,20.93
2018-05-25T08:01:17.893Z,21.02
2018-05-25T08:03:44.918Z,21.04
2018-05-25T08:06:11.226Z,21.09
2018-05-25T08:08:37.551Z,21.13
2018-05-25T08:11:03.827Z,21.18
2018-05-25T08:13:30.101Z,21.22
2018-05-25T08:15:57.125Z,21.32
2018-05-25T08:18:23.414Z,21.42
2018-05-25T08:20:50.476Z,21.53
2018-05-25T08:23:16.794Z,21.59
2018-05-25T08:25:43.094Z,21.66
2018-05-25T08:28:10.154Z,21.74
2018-05-25T08:30:36.638Z,21.80
2018-05-25T08:33:02.942Z,21.86
2018-05-25T08:35:29.279Z,21.93
2018-05-25T08:37:56.346Z,21.99
2018-05-25T08:40:22.650Z,22.05
2018-05-25T08:42:49.851Z,22.11
2018-05-25T08:45:16.137Z,22.16
2018-05-25T08:47:42.492Z,22.19
2018-05-25T08:50:08.809Z,22.20
2018-05-25T08:52:35.106Z,22.17
2018-05-25T08:55:01.468Z,22.31
2018-05-25T08:57:27.764Z,22.34
2018-05-25T08:59:54.125Z,22.41
2018-05-25T09:02:20.350Z,22.43
2018-05-25T09:04:46.678Z,22.52
2018-05-25T09:07:12.990Z,22.51
2018-05-25T09:09:39.270Z,22.56
2018-05-25T09:12:05.565Z,22.68
2018-05-25T09:14:31.840Z,22.77
2018-05-25T09:16:58.105Z,22.86
2018-05-25T09:19:24.397Z,22.95
2018-05-25T09:21:50.824Z,23.09
2018-05-25T09:24:16.969Z,23.24
2018-05-25T09:26:43.238Z,23.36
2018-05-25T09:29:09.568Z,23.46
2018-05-25T09:31:35.834Z,23.42
2018-05-25T09:34:02.892Z,23.62
2018-05-25T09:36:29.983Z,23.69
2018-05-25T09:38:56.293Z,23.89
2018-05-25T09:41:23.355Z,24.08
2018-05-25T09:43:49.701Z,24.27
2018-05-25T09:46:15.987Z,24.28
2018-05-25T09:48:42.365Z,24.50
2018-05-25T09:51:08.622Z,24.69
2018-05-25T09:53:34.962Z,25.20
2018-05-25T09:56:01.367Z,25.87
2018-05-25T09:58:27.656Z,26.28
2018-05-25T10:00:53.984Z,26.64
2018-05-25T10:03:20.313Z,27.04
2018-05-25T10:05:46.577Z,27.16
2018-05-25T10:08:12.902Z,27.58
2018-05-25T10:10:39.206Z,28.02
2018-05-25T10:13:05.494Z,28.48
2018-05-25T10:15:31.790Z,28.74
2018-05-25T10:17:58.130Z,29.36
2018-05-25T10:20:25.069Z,29.76
2018-05-25T10:22:51.329Z,30.22
2018-05-25T10:25:17.641Z,30.71
2018-05-25T10:27:43.894Z,31.05
2018-05-25T10:30:10.249Z,31.93
2018-05-25T10:32:36.539Z,32.42
2018-05-25T10:35:02.828Z,32.55
2018-05-25T10:37:29.082Z,33.16
2018-05-25T10:39:56.138Z,33.79
2018-05-25T10:42:22.410Z,34.15
2018-05-25T10:44:48.710Z,34.27
2018-05-25T10:47:15.778Z,34.77
2018-05-25T10:49:42.809Z,35.10
2018-05-25T10:52:09.797Z,34.80
2018-05-25T10:54:36.122Z,35.12
2018-05-25T10:57:03.126Z,35.32
2018-05-25T10:59:29.433Z,35.77
2018-05-25T11:01:55.691Z,36.35
2018-05-25T11:04:21.931Z,36.59
2018-05-25T11:06:48.262Z,36.75
2018-05-25T11:09:14.501Z,36.95
2018-05-25T11:11:40.779Z,36.86
2018-05-25T11:14:07.801Z,37.07
2018-05-25T11:16:34.042Z,37.23
2018-05-25T11:19:00.532Z,37.25
2018-05-25T11:21:26.837Z,37.25
2018-05-25T11:23:53.830Z,37.23
2018-05-25T11:26:20.109Z,37.96
2018-05-25T11:28:46.602Z,38.17
2018-05-25T11:31:12.865Z,38.24
2018-05-25T11:33:39.230Z,38.34
2018-05-25T11:36:05.510Z,38.09
2018-05-25T11:38:31.777Z,37.78
2018-05-25T11:40:58.063Z,37.98
2018-05-25T11:43:25.096Z,38.30
2018-05-25T11:45:52.083Z,38.45
2018-05-25T11:48:18.345Z,38.43
2018-05-25T11:50:44.596Z,38.54
2018-05-25T11:53:10.866Z,38.65
2018-05-25T11:55:37.956Z,38.68
2018-05-25T11:58:04.243Z,38.64
2018-05-25T12:00:31.591Z,38.65
2018-05-25T12:03:00.060Z,38.87
2018-05-25T12:05:26.345Z,38.73
2018-05-25T12:07:52.629Z,38.95
2018-05-25T12:10:18.901Z,38.78
2018-05-25T12:12:45.899Z,38.87
2018-05-25T12:15:12.216Z,38.66
2018-05-25T12:17:38.542Z,38.78
2018-05-25T12:20:04.863Z,38.68
2018-05-25T12:22:31.884Z,38.38
2018-05-25T12:24:58.187Z,38.66
2018-05-25T12:27:24.482Z,38.57
2018-05-25T12:29:51.553Z,38.54
2018-05-25T12:32:18.851Z,38.85
2018-05-25T12:34:45.905Z,38.88
2018-05-25T12:37:16.968Z,38.61
2018-05-25T12:39:43.298Z,38.45
2018-05-25T12:42:09.577Z,38.62
2018-05-25T12:44:55.202Z,38.62
2018-05-25T12:47:21.514Z,38.86
2018-05-25T12:49:47.803Z,38.89
2018-05-25T12:52:14.095Z,38.95
2018-05-25T12:54:40.457Z,38.91
2018-05-25T12:57:06.729Z,38.82
2018-05-25T12:59:33.780Z,38.60
2018-05-25T13:02:00.789Z,38.67
2018-05-25T13:04:27.130Z,38.53
2018-05-25T13:06:53.415Z,38.48
2018-05-25T13:09:20.435Z,38.47
2018-05-25T13:11:46.757Z,38.39
2018-05-25T13:14:12.982Z,38.19
2018-05-25T13:16:39.241Z,38.22
2018-05-25T13:19:05.510Z,38.00
2018-05-25T13:21:32.505Z,37.57
2018-05-25T13:23:58.865Z,37.39
2018-05-25T13:26:25.136Z,37.08
2018-05-25T13:28:52.128Z,36.67
2018-05-25T13:31:18.514Z,36.14
2018-05-25T13:33:44.760Z,35.85
2018-05-25T13:36:11.805Z,35.70
2018-05-25T13:38:38.843Z,35.53
2018-05-25T13:41:05.141Z,34.88
2018-05-25T13:43:31.393Z,34.99
2018-05-25T13:45:57.673Z,34.11
2018-05-25T13:48:24.678Z,34.36
2018-05-25T13:50:51.007Z,34.11
2018-05-25T13:53:17.278Z,34.15
2018-05-25T13:55:43.586Z,33.76
2018-05-25T13:58:10.111Z,33.53
2018-05-25T14:00:36.341Z,33.05
2018-05-25T14:03:02.673Z,32.82
2018-05-25T14:05:29.005Z,32.86
2018-05-25T14:07:55.309Z,32.64
2018-05-25T14:10:22.302Z,32.36
2018-05-25T14:12:48.655Z,32.21
2018-05-25T14:15:14.928Z,31.98
2018-05-25T14:17:41.985Z,32.01
2018-05-25T14:20:09.074Z,31.91
2018-05-25T14:22:35.370Z,31.75
2018-05-25T14:25:01.635Z,31.44
2018-05-25T14:27:27.906Z,30.95
2018-05-25T14:29:54.241Z,31.00
2018-05-25T14:32:20.529Z,30.88
2018-05-25T14:34:47.566Z,30.86
2018-05-25T14:37:13.872Z,30.78
2018-05-25T14:39:40.290Z,30.82
2018-05-25T14:42:06.567Z,30.58
2018-05-25T14:44:32.848Z,30.54
2018-05-25T14:46:59.109Z,30.58
2018-05-25T14:49:25.501Z,30.74
2018-05-25T14:51:51.758Z,30.74
2018-05-25T14:54:18.058Z,30.57
2018-05-25T14:56:44.442Z,30.74
2018-05-25T14:59:10.724Z,30.83
2018-05-25T15:01:37.019Z,30.85
2018-05-25T15:04:03.319Z,30.83
2018-05-25T15:06:30.352Z,30.69
2018-05-25T15:08:56.614Z,30.87
2018-05-25T15:11:23.621Z,30.98
2018-05-25T15:13:49.909Z,30.70
2018-05-25T15:16:16.241Z,30.85
2018-05-25T15:18:43.268Z,30.96
2018-05-25T15:21:10.312Z,31.07
2018-05-25T15:23:36.571Z,31.08
2018-05-25T15:26:02.874Z,30.85
2018-05-25T15:28:29.202Z,30.78
2018-05-25T15:30:55.669Z,30.63
2018-05-25T15:33:21.785Z,30.49
2018-05-25T15:35:48.090Z,30.59
2018-05-25T15:38:14.365Z,30.54
2018-05-25T15:40:40.665Z,30.37
2018-05-25T15:43:06.997Z,30.04
2018-05-25T15:45:33.249Z,29.99
2018-05-25T15:47:59.722Z,30.02
2018-05-25T15:50:26.170Z,29.75
2018-05-25T15:52:53.516Z,29.66
2018-05-25T15:55:21.141Z,29.51
2018-05-25T15:57:47.449Z,29.38
2018-05-25T16:00:14.445Z,29.48
2018-05-25T16:02:40.759Z,29.10
2018-05-25T16:05:07.196Z,29.12
2018-05-25T16:07:33.582Z,29.09
2018-05-25T16:09:59.844Z,28.91
2018-05-25T16:12:26.131Z,28.86
2018-05-25T16:14:52.381Z,28.92
2018-05-25T16:17:18.725Z,28.63
2018-05-25T16:19:45.029Z,28.59
2018-05-25T16:22:11.386Z,28.49
2018-05-25T16:24:37.888Z,28.49
2018-05-25T16:27:04.400Z,28.50
2018-05-25T16:29:31.498Z,28.47
2018-05-25T16:31:57.809Z,28.51
2018-05-25T16:34:24.162Z,28.48
2018-05-25T16:36:50.489Z,28.37
2018-05-25T16:39:16.766Z,28.14
2018-05-25T16:41:43.085Z,28.26
2018-05-25T16:44:10.164Z,28.16
2018-05-25T16:46:36.451Z,28.06
2018-05-25T16:49:10.236Z,27.99
2018-05-25T16:51:37.455Z,28.01
2018-05-25T16:54:03.733Z,28.06
2018-05-25T16:56:30.906Z,28.09
2018-05-25T16:58:57.213Z,28.04
2018-05-25T17:01:23.497Z,27.89
2018-05-25T17:03:49.805Z,27.90
2018-05-25T17:06:16.857Z,27.55
2018-05-25T17:08:43.937Z,27.66
2018-05-25T17:11:10.255Z,27.55
2018-05-25T17:13:36.635Z,27.62
2018-05-25T17:16:02.947Z,27.48
2018-05-25T17:18:29.265Z,27.53
2018-05-25T17:20:55.597Z,27.67
2018-05-25T17:23:21.947Z,27.68
2018-05-25T17:25:48.222Z,27.78
2018-05-25T17:28:14.550Z,27.66
2018-05-25T17:30:40.820Z,27.75
2018-05-25T17:33:07.069Z,27.86
2018-05-25T17:35:34.161Z,27.90
2018-05-25T17:38:00.427Z,27.82
2018-05-25T17:40:26.723Z,27.91
2018-05-25T17:42:53.148Z,27.71
2018-05-25T17:45:19.414Z,27.66
2018-05-25T17:47:45.684Z,27.74
2018-05-25T17:50:12.003Z,27.61
2018-05-25T17:52:38.300Z,27.75
2018-05-25T17:55:04.645Z,27.76
2018-05-25T17:57:30.958Z,27.54
2018-05-25T17:59:57.277Z,27.46
2018-05-25T18:02:24.320Z,27.31
2018-05-25T18:04:50.627Z,27.24
2018-05-25T18:07:16.888Z,27.28
2018-05-25T18:09:43.166Z,27.18
2018-05-25T18:12:09.447Z,27.17
2018-05-25T18:14:35.694Z,27.12
2018-05-25T18:17:02.023Z,26.99
2018-05-25T18:19:28.355Z,26.89
2018-05-25T18:21:54.618Z,26.67
2018-05-25T18:24:20.969Z,26.49
2018-05-25T18:26:47.316Z,26.37
2018-05-25T18:29:13.647Z,26.29
2018-05-25T18:31:39.946Z,26.14
2018-05-25T18:34:06.287Z,26.04
2018-05-25T18:36:32.578Z,25.95
2018-05-25T18:38:58.866Z,25.76
2018-05-25T18:41:25.267Z,25.49
2018-05-25T18:43:51.561Z,25.42
2018-05-25T18:46:18.626Z,25.25
2018-05-25T18:48:44.986Z,25.15
2018-05-25T18:51:11.280Z,25.02
2018-05-25T18:53:37.651Z,24.96
2018-05-25T18:56:03.998Z,24.87
2018-05-25T18:58:30.318Z,24.79
2018-05-25T19:00:56.618Z,24.70
2018-05-25T19:03:23.645Z,24.54
2018-05-25T19:05:49.979Z,24.43
2018-05-25T19:08:16.265Z,24.35
2018-05-25T19:10:42.565Z,24.05
2018-05-25T19:13:08.858Z,24.00
2018-05-25T19:15:35.165Z,23.94
2018-05-25T19:18:02.287Z,24.01
2018-05-25T19:20:28.674Z,23.89
2018-05-25T19:22:54.998Z,23.88
2018-05-25T19:25:22.069Z,23.79
2018-05-25T19:27:49.226Z,23.67
2018-05-25T19:30:15.567Z,23.60
2018-05-25T19:32:41.878Z,23.52
2018-05-25T19:35:08.939Z,23.33
2018-05-25T19:37:35.233Z,23.24
2018-05-25T19:40:01.624Z,23.19
2018-05-25T19:42:27.938Z,23.10
2018-05-25T19:44:54.966Z,22.99
2018-05-25T19:47:21.257Z,22.94
2018-05-25T19:49:47.525Z,22.83
2018-05-25T19:52:13.829Z,22.82
2018-05-25T19:54:40.140Z,22.77
2018-05-25T19:57:07.379Z,22.81
2018-05-25T19:59:34.645Z,22.72
2018-05-25T20:02:01.700Z,22.61
2018-05-25T20:04:28.686Z,22.43
2018-05-25T20:06:55.002Z,22.40
2018-05-25T20:09:21.386Z,22.38
2018-05-25T20:11:47.707Z,22.26
2018-05-25T20:14:14.022Z,22.18
2018-05-25T20:16:40.281Z,21.99
2018-05-25T20:19:06.604Z,21.95
2018-05-25T20:21:32.935Z,21.82
2018-05-25T20:23:59.171Z,21.84
2018-05-25T20:26:25.405Z,21.79
2018-05-25T20:28:51.701Z,21.55
2018-05-25T20:31:17.989Z,21.39
2018-05-25T20:33:44.302Z,21.46
2018-05-25T20:36:13.600Z,21.41
2018-05-25T20:38:40.705Z,21.31
2018-05-25T20:41:07.008Z,21.24
2018-05-25T20:43:33.286Z,21.08
2018-05-25T20:45:59.570Z,21.20
2018-05-25T20:48:25.888Z,20.88
2018-05-25T20:50:52.250Z,20.97
2018-05-25T20:53:18.546Z,20.87
2018-05-25T20:55:44.805Z,20.83
2018-05-25T20:58:11.902Z,20.66
2018-05-25T21:00:38.194Z,20.53
2018-05-25T21:03:05.290Z,20.45
2018-05-25T21:05:31.623Z,20.31
2018-05-25T21:07:58.000Z,20.40
2018-05-25T21:10:24.270Z,20.42
2018-05-25T21:12:50.587Z,20.35
2018-05-25T21:15:17.657Z,20.45
2018-05-25T21:17:44.023Z,20.33
2018-05-25T21:20:10.350Z,20.28
2018-05-25T21:22:36.618Z,20.20
2018-05-25T21:25:02.944Z,20.14
2018-05-25T21:27:30.342Z,20.00
2018-05-25T21:29:56.643Z,19.89
2018-05-25T21:32:22.935Z,19.79
2018-05-25T21:34:50.841Z,19.78
2018-05-25T21:37:21.387Z,19.89
2018-05-25T21:39:51.867Z,19.82
2018-05-25T21:42:18.286Z,19.73
2018-05-25T21:44:46.141Z,19.60
2018-05-25T21:47:12.965Z,19.54
2018-05-25T21:49:42.043Z,19.30
2018-05-25T21:52:08.705Z,19.19
2018-05-25T21:54:34.998Z,19.14
2018-05-25T21:57:02.045Z,19.07
2018-05-25T21:59:28.317Z,19.05
2018-05-25T22:01:54.638Z,19.07
2018-05-25T22:04:20.897Z,19.09
2018-05-25T22:06:47.185Z,19.01
2018-05-25T22:09:13.489Z,18.86
2018-05-25T22:11:39.777Z,18.91
2018-05-25T22:14:06.118Z,18.89
2018-05-25T22:16:32.501Z,18.85
2018-05-25T22:18:58.808Z,18.89
2018-05-25T22:21:25.136Z,18.90
2018-05-25T22:23:51.410Z,18.85
2018-05-25T22:26:17.681Z,18.75
2018-05-25T22:28:44.759Z,18.75
2018-05-25T22:31:11.045Z,18.57
2018-05-25T22:33:37.307Z,18.60
2018-05-25T22:36:04.355Z,18.48
2018-05-25T22:38:31.407Z,18.48
2018-05-25T22:40:58.464Z,18.51
2018-05-25T22:43:43.989Z,18.41
2018-05-25T22:46:28.721Z,18.37
2018-05-25T22:49:13.422Z,18.53
2018-05-25T22:51:58.054Z,18.42
2018-05-25T22:54:33.305Z,18.30
2018-05-25T22:56:59.594Z,18.28
2018-05-25T22:59:26.611Z,18.29
2018-05-25T23:01:52.948Z,18.21
2018-05-25T23:04:20.756Z,18.14
2018-05-25T23:06:47.762Z,18.03
2018-05-25T23:09:14.058Z,17.93
2018-05-25T23:11:40.354Z,18.03
2018-05-25T23:14:06.616Z,18.03
2018-05-25T23:16:32.918Z,18.10
2018-05-25T23:18:59.993Z,17.96
2018-05-25T23:21:26.254Z,17.93
2018-05-25T23:23:52.585Z,17.86
2018-05-25T23:26:18.886Z,17.86
2018-05-25T23:28:45.164Z,17.81
2018-05-25T23:31:11.432Z,17.79
2018-05-25T23:33:37.714Z,17.90
2018-05-25T23:36:04.723Z,18.14
2018-05-25T23:38:30.977Z,17.93
2018-05-25T23:40:57.292Z,17.88
2018-05-25T23:43:23.642Z,17.73
2018-05-25T23:45:49.902Z,17.62
2018-05-25T23:48:16.914Z,17.71
2018-05-25T23:50:43.241Z,17.55
2018-05-25T23:53:09.576Z,17.55
2018-05-25T23:55:35.929Z,17.63
2018-05-25T23:58:02.178Z,17.59
